CST,Max TemperatureF,Mean TemperatureF,Min TemperatureF,Max Dew PointF,MeanDew PointF,Min DewpointF,Max Humidity, Mean Humidity, Min Humidity, Max Sea Level PressureIn, Mean Sea Level PressureIn, Min Sea Level PressureIn, Max VisibilityMiles, Mean VisibilityMiles, Min VisibilityMiles, Max Wind SpeedMPH, Mean Wind SpeedMPH, Max Gust SpeedMPH,PrecipitationIn, CloudCover, Events, WindDirDegrees
2013-1-1,41,34,26,41,33,27,100,100,93,30.30,30.21,30.04,10,6,1,9,6,,0.00,7,Rain-Snow,327
2013-1-2,46,34,23,32,29,23,100,88,53,30.32,30.27,30.19,10,8,3,10,5,,0.00,2,,265
2013-1-3,46,36,26,32,30,27,100,85,53,30.47,30.41,30.32,10,10,10,9,5,,0.00,0,,307
2013-1-4,50,36,23,32,30,23,100,75,47,30.48,30.40,30.32,10,10,10,13,6,18,0.00,3,,201
2013-1-5,51,42,33,37,35,30,93,75,54,30.31,30.24,30.16,10,10,10,15,7,22,0.00,4,,223
2013-1-6,53,42,30,32,28,27,93,67,38,30.44,30.36,30.30,10,10,10,9,6,,0.00,0,,338
2013-1-7,53,40,28,34,30,25,87,70,44,30.34,30.22,30.10,10,10,10,14,6,18,0.00,0,,172
2013-1-8,59,46,33,50,40,32,100,82,55,30.18,30.09,30.02,10,9,2,13,6,17,0.00,5,Rain,147
2013-1-9,53,50,48,50,49,46,100,96,82,30.33,30.22,30.11,10,6,0,15,7,20,0.00,8,Fog-Rain,47
2013-1-10,60,55,50,61,53,50,100,99,82,30.12,29.90,29.80,10,7,1,17,10,21,0.00,7,Rain,150
2013-1-11,71,60,48,55,51,46,100,77,46,29.85,29.76,29.67,10,10,10,22,11,29,0.00,0,,190
2013-1-12,60,45,30,43,32,27,100,76,36,30.10,29.95,29.84,10,10,3,13,9,18,0.00,6,Rain,353
2013-1-13,33,28,23,27,20,18,86,71,56,30.38,30.24,30.03,10,10,10,12,8,16,0.00,1,,1
2013-1-14,37,28,19,21,19,18,93,67,45,30.47,30.36,30.31,10,10,7,12,6,17,0.00,1,,40
2013-1-15,37,30,23,27,21,16,100,73,45,30.33,30.26,30.20,10,10,10,8,5,,0.00,4,,359
2013-1-16,51,36,21,30,22,18,93,61,33,30.23,30.18,30.12,10,10,10,10,5,,0.00,1,,263
2013-1-17,55,44,33,36,34,30,93,72,47,30.50,30.41,30.22,10,10,10,12,6,,0.00,0,,340
2013-1-18,62,47,32,37,34,30,100,67,37,30.49,30.34,30.18,10,10,10,17,9,23,0.00,0,,187
2013-1-19,68,54,41,41,38,36,81,58,37,30.22,30.15,30.08,10,10,10,16,10,20,0.00,0,,233
2013-1-20,66,50,35,41,36,25,87,63,40,30.29,30.20,30.11,10,10,10,15,7,16,0.00,0,,37
2013-1-21,44,34,23,23,21,19,86,60,37,30.43,30.34,30.27,10,10,5,10,7,18,0.00,0,,33
2013-1-22,59,42,24,37,29,21,93,64,36,30.30,30.23,30.16,10,10,7,12,5,17,0.00,0,,160
2013-1-23,69,51,33,54,44,34,100,78,53,30.24,30.18,30.11,10,10,7,9,5,,0.00,0,,151
2013-1-24,50,42,32,45,31,28,93,71,57,30.26,30.20,30.12,10,10,7,15,9,22,0.00,5,,29
2013-1-25,51,40,30,36,33,28,100,81,50,30.25,30.20,30.13,10,9,7,10,6,,0.00,4,,11
2013-1-26,51,42,32,46,40,32,100,89,67,30.24,30.17,30.07,10,9,5,18,6,24,0.00,5,Rain,142
2013-1-27,66,55,44,63,55,45,100,98,83,30.08,29.94,29.85,10,6,1,22,12,31,0.00,6,Rain,175
2013-1-28,78,70,62,66,65,61,100,85,61,29.93,29.84,29.74,10,10,10,24,14,33,0.00,5,,187
2013-1-29,71,56,41,66,56,39,100,92,78,29.74,29.60,29.43,10,8,1,20,13,29,0.00,7,Rain,191
2013-1-30,44,38,32,41,32,27,100,75,57,30.06,29.91,29.65,10,10,10,14,8,,0.00,5,,275
2013-1-31,59,42,26,34,27,18,86,66,34,30.44,30.17,30.02,10,10,10,12,6,16,0.00,0,,257